createdAt,value
2023-03-22T00:01:24.110Z,1.90
2023-03-22T00:03:52.671Z,1.90
2023-03-22T00:06:20.422Z,1.60
2023-03-22T00:08:52.401Z,1.33
2023-03-22T00:11:22.793Z,1.20
2023-03-22T00:13:52.671Z,1.42
2023-03-22T00:16:21.918Z,1.80
2023-03-22T00:18:49.712Z,1.30
2023-03-22T00:21:17.646Z,1.42
2023-03-22T00:23:46.296Z,1.60
2023-03-22T00:26:15.003Z,1.42
2023-03-22T00:28:43.576Z,1.55
2023-03-22T00:31:11.761Z,1.50
2023-03-22T00:33:39.530Z,1.50
2023-03-22T00:36:10.390Z,1.30
2023-03-22T00:38:43.751Z,2.00
2023-03-22T00:41:17.813Z,1.25
2023-03-22T00:43:47.422Z,1.40
2023-03-22T00:46:16.575Z,1.30
2023-03-22T00:48:44.440Z,1.35
2023-03-22T00:51:13.427Z,1.30
2023-03-22T00:53:43.260Z,1.45
2023-03-22T00:56:16.124Z,1.53
2023-03-22T00:58:44.361Z,1.58
2023-03-22T01:01:15.155Z,1.40
2023-03-22T01:03:44.032Z,1.55
2023-03-22T01:06:14.639Z,1.10
2023-03-22T01:08:42.506Z,1.30
2023-03-22T01:11:10.358Z,0.80
2023-03-22T01:13:38.488Z,1.20
2023-03-22T01:16:06.895Z,1.00
2023-03-22T01:18:35.775Z,1.00
2023-03-22T01:21:03.745Z,1.50
2023-03-22T01:23:31.958Z,0.90
2023-03-22T01:25:59.944Z,1.40
2023-03-22T01:28:28.748Z,1.60
2023-03-22T01:30:56.594Z,1.83
2023-03-22T01:33:24.131Z,1.20
2023-03-22T01:35:52.065Z,1.10
2023-03-22T01:38:19.970Z,1.20
2023-03-22T01:40:48.645Z,1.12
2023-03-22T01:43:17.864Z,1.10
2023-03-22T01:45:50.398Z,1.20
2023-03-22T01:48:28.436Z,1.08
2023-03-22T01:51:20.605Z,1.02
2023-03-22T01:53:54.798Z,1.30
2023-03-22T01:56:25.685Z,1.12
2023-03-22T01:58:55.248Z,1.00
2023-03-22T02:01:25.765Z,1.20
2023-03-22T02:04:10.272Z,1.23
2023-03-22T02:06:39.205Z,1.30
2023-03-22T02:09:11.116Z,1.48
2023-03-22T02:11:44.021Z,1.10
2023-03-22T02:14:47.252Z,1.42
2023-03-22T02:17:31.798Z,1.40
2023-03-22T02:20:31.910Z,1.77
2023-03-22T02:23:23.986Z,2.03
2023-03-22T02:26:16.002Z,1.50
2023-03-22T02:28:52.461Z,1.25
2023-03-22T02:31:31.118Z,1.10
2023-03-22T02:34:21.365Z,1.15
2023-03-22T02:37:04.149Z,1.17
2023-03-22T02:39:37.631Z,1.10
2023-03-22T02:42:23.881Z,0.80
2023-03-22T02:44:59.647Z,1.30
2023-03-22T02:47:43.586Z,1.10
2023-03-22T02:50:38.204Z,1.37
2023-03-22T02:53:13.054Z,1.10
2023-03-22T02:55:46.632Z,1.05
2023-03-22T02:58:23.633Z,0.80
2023-03-22T03:00:56.627Z,0.98
2023-03-22T03:03:29.359Z,0.88
2023-03-22T03:06:01.603Z,0.80
2023-03-22T03:08:30.983Z,1.20
2023-03-22T03:11:00.056Z,1.40
2023-03-22T03:13:27.870Z,1.10
2023-03-22T03:16:00.318Z,1.40
2023-03-22T03:18:49.792Z,1.20
2023-03-22T03:21:45.455Z,1.50
2023-03-22T03:24:31.763Z,1.10
2023-03-22T03:27:07.290Z,1.08
2023-03-22T03:30:13.743Z,1.30
2023-03-22T03:33:09.541Z,1.03
2023-03-22T03:35:49.194Z,1.12
2023-03-22T03:38:22.519Z,1.30
2023-03-22T03:40:55.958Z,1.12
2023-03-22T03:43:25.700Z,1.15
2023-03-22T03:45:54.990Z,1.20
2023-03-22T03:48:29.278Z,1.48
2023-03-22T03:50:58.438Z,1.30
2023-03-22T03:53:26.079Z,1.05
2023-03-22T03:55:53.699Z,1.33
2023-03-22T03:58:21.810Z,1.00
2023-03-22T04:00:50.363Z,0.98
2023-03-22T04:03:18.816Z,1.02
2023-03-22T04:05:46.788Z,1.20
2023-03-22T04:08:14.652Z,1.10
2023-03-22T04:10:42.729Z,1.30
2023-03-22T04:13:10.436Z,1.40
2023-03-22T04:15:38.153Z,1.62
2023-03-22T04:18:07.219Z,1.60
2023-03-22T04:20:34.745Z,1.60
2023-03-22T04:23:02.361Z,2.37
2023-03-22T04:25:30.286Z,1.40
2023-03-22T04:28:00.587Z,1.67
2023-03-22T04:30:28.643Z,1.73
2023-03-22T04:32:58.325Z,1.70
2023-03-22T04:35:26.561Z,1.93
2023-03-22T04:37:54.421Z,2.03
2023-03-22T04:40:22.401Z,1.65
2023-03-22T04:42:51.478Z,1.35
2023-03-22T04:45:19.100Z,1.60
2023-03-22T04:47:47.627Z,1.30
2023-03-22T04:50:16.154Z,1.37
2023-03-22T04:52:44.117Z,1.60
2023-03-22T04:55:12.024Z,1.60
2023-03-22T04:57:39.561Z,1.40
2023-03-22T05:00:10.300Z,1.70
2023-03-22T05:02:41.798Z,1.80
2023-03-22T05:05:10.697Z,3.05
2023-03-22T05:07:39.317Z,2.78
2023-03-22T05:10:08.028Z,2.53
2023-03-22T05:12:35.704Z,2.30
2023-03-22T05:15:06.139Z,2.30
2023-03-22T05:17:33.938Z,2.40
2023-03-22T05:20:09.257Z,2.60
2023-03-22T05:22:41.212Z,2.37
2023-03-22T05:25:10.843Z,2.30
2023-03-22T05:27:39.237Z,2.90
2023-03-22T05:30:08.090Z,2.87
2023-03-22T05:32:37.702Z,3.35
2023-03-22T05:35:06.990Z,3.25
2023-03-22T05:37:34.866Z,3.33
2023-03-22T05:40:05.348Z,4.03
2023-03-22T05:42:33.593Z,3.92
2023-03-22T05:45:01.503Z,3.97
2023-03-22T05:47:29.398Z,3.45
2023-03-22T05:49:57.477Z,3.70
2023-03-22T05:52:25.570Z,3.60
2023-03-22T05:54:53.328Z,3.72
2023-03-22T05:57:21.163Z,3.58
2023-03-22T05:59:48.658Z,3.67
2023-03-22T06:02:17.484Z,3.37
2023-03-22T06:04:45.383Z,3.90
2023-03-22T06:07:13.930Z,4.93
2023-03-22T06:09:41.944Z,4.03
2023-03-22T06:12:10.312Z,3.92
2023-03-22T06:14:38.126Z,3.80
2023-03-22T06:17:06.217Z,3.90
2023-03-22T06:19:34.121Z,3.87
2023-03-22T06:22:02.426Z,3.28
2023-03-22T06:24:31.996Z,3.35
2023-03-22T06:27:00.368Z,3.53
2023-03-22T06:29:28.493Z,4.05
2023-03-22T06:31:56.998Z,3.62
2023-03-22T06:34:24.984Z,3.55
2023-03-22T06:36:53.541Z,3.78
2023-03-22T06:39:22.922Z,3.40
2023-03-22T06:41:51.708Z,3.45
2023-03-22T06:44:19.482Z,4.15
2023-03-22T06:46:53.417Z,5.82
2023-03-22T06:49:21.995Z,5.97
2023-03-22T06:51:51.097Z,6.13
2023-03-22T06:54:19.492Z,6.05
2023-03-22T06:56:47.037Z,5.60
2023-03-22T06:59:14.657Z,5.30
2023-03-22T07:01:42.563Z,5.75
2023-03-22T07:04:11.154Z,6.40
2023-03-22T07:06:38.982Z,5.07
2023-03-22T07:09:07.094Z,5.10
2023-03-22T07:11:34.835Z,4.87
2023-03-22T07:14:02.788Z,5.22
2023-03-22T07:16:32.468Z,4.90
2023-03-22T07:19:01.467Z,5.37
2023-03-22T07:21:29.688Z,4.62
2023-03-22T07:23:58.268Z,4.72
2023-03-22T07:26:27.721Z,4.40
2023-03-22T07:28:56.069Z,5.17
2023-03-22T07:31:26.750Z,5.32
2023-03-22T07:33:56.201Z,5.22
2023-03-22T07:36:25.779Z,5.53
2023-03-22T07:38:53.757Z,6.35
2023-03-22T07:41:24.088Z,6.33
2023-03-22T07:43:56.833Z,5.65
2023-03-22T07:46:30.397Z,6.55
2023-03-22T07:48:58.871Z,7.70
2023-03-22T07:51:27.941Z,6.75
2023-03-22T07:53:55.808Z,5.83
2023-03-22T07:56:23.494Z,6.15
2023-03-22T07:58:51.026Z,4.45
2023-03-22T08:01:18.989Z,3.90
2023-03-22T08:03:47.641Z,3.75
2023-03-22T08:06:18.921Z,4.30
2023-03-22T08:08:47.557Z,2.90
2023-03-22T08:11:15.626Z,3.30
2023-03-22T08:13:43.230Z,3.47
2023-03-22T08:16:11.604Z,3.22
2023-03-22T08:18:39.256Z,3.03
2023-03-22T08:21:07.431Z,3.00
2023-03-22T08:23:41.757Z,2.40
2023-03-22T08:26:14.177Z,2.95
2023-03-22T08:28:42.149Z,2.60
2023-03-22T08:31:15.536Z,2.57
2023-03-22T08:33:45.221Z,2.62
2023-03-22T08:36:17.006Z,3.15
2023-03-22T08:38:45.459Z,2.30
2023-03-22T08:41:13.889Z,2.95
2023-03-22T08:43:42.580Z,3.60
2023-03-22T08:46:10.560Z,2.85
2023-03-22T08:48:38.579Z,2.45
2023-03-22T08:51:06.817Z,2.70
2023-03-22T08:53:35.594Z,3.53
2023-03-22T08:56:04.829Z,2.37
2023-03-22T08:58:33.674Z,2.70
2023-03-22T09:01:06.090Z,2.25
2023-03-22T09:03:33.785Z,2.10
2023-03-22T09:06:01.339Z,2.47
2023-03-22T09:08:30.090Z,2.67
2023-03-22T09:10:58.159Z,2.50
2023-03-22T09:13:26.107Z,2.20
2023-03-22T09:15:54.451Z,2.75
2023-03-22T09:18:24.295Z,2.25
2023-03-22T09:20:52.857Z,4.20
2023-03-22T09:23:21.200Z,5.50
2023-03-22T09:25:49.152Z,4.00
2023-03-22T09:28:17.194Z,5.03
2023-03-22T09:30:46.618Z,4.25
2023-03-22T09:33:14.744Z,3.30
2023-03-22T09:35:43.837Z,3.08
2023-03-22T09:38:12.646Z,2.97
2023-03-22T09:40:52.171Z,3.08
2023-03-22T09:43:20.955Z,2.72
2023-03-22T09:45:51.225Z,2.73
2023-03-22T09:48:24.296Z,2.62
2023-03-22T09:50:54.098Z,2.40
2023-03-22T09:53:23.830Z,2.90
2023-03-22T09:56:02.084Z,2.28
2023-03-22T09:58:50.507Z,2.53
2023-03-22T10:01:48.718Z,2.25
2023-03-22T10:04:42.839Z,2.55
2023-03-22T10:07:37.424Z,2.60
2023-03-22T10:10:10.195Z,2.85
2023-03-22T10:12:50.217Z,2.37
2023-03-22T10:15:27.245Z,2.05
2023-03-22T10:17:57.841Z,2.37
2023-03-22T10:20:47.446Z,1.90
2023-03-22T10:23:20.905Z,2.58
2023-03-22T10:25:51.451Z,1.93
2023-03-22T10:28:30.310Z,1.35
2023-03-22T10:30:58.761Z,1.20
2023-03-22T10:33:52.703Z,1.33
2023-03-22T10:36:24.013Z,1.27
2023-03-22T10:39:04.153Z,1.80
2023-03-22T10:41:33.736Z,2.20
2023-03-22T10:44:03.161Z,2.15
2023-03-22T10:46:39.537Z,1.75
2023-03-22T10:49:13.394Z,2.05
2023-03-22T10:51:47.793Z,1.57
2023-03-22T10:54:18.870Z,1.80
2023-03-22T10:56:46.384Z,2.08
2023-03-22T10:59:47.404Z,1.37
2023-03-22T11:02:21.459Z,1.00
2023-03-22T11:04:58.163Z,1.30
2023-03-22T11:07:38.203Z,1.10
2023-03-22T11:10:09.282Z,1.85
2023-03-22T11:12:46.974Z,1.30
2023-03-22T11:15:20.301Z,1.25
2023-03-22T11:17:48.525Z,1.23
2023-03-22T11:20:19.407Z,1.20
2023-03-22T11:22:48.469Z,0.88
2023-03-22T11:25:22.077Z,1.10
2023-03-22T11:28:06.163Z,1.12
2023-03-22T11:30:34.462Z,1.20
2023-03-22T11:33:08.096Z,1.40
2023-03-22T11:35:38.303Z,1.20
2023-03-22T11:38:06.262Z,0.90
2023-03-22T11:40:55.117Z,1.10
2023-03-22T11:43:26.757Z,1.00
2023-03-22T11:45:57.565Z,1.48
2023-03-22T11:48:29.172Z,1.30
2023-03-22T11:51:06.398Z,1.80
2023-03-22T11:53:37.262Z,2.12
2023-03-22T11:56:07.683Z,1.87
2023-03-22T11:58:38.234Z,1.67
2023-03-22T12:01:07.073Z,1.67
2023-03-22T12:03:39.535Z,1.70
2023-03-22T12:06:23.005Z,1.58
2023-03-22T12:09:04.234Z,1.50
2023-03-22T12:11:42.006Z,1.35
2023-03-22T12:14:35.789Z,1.50
2023-03-22T12:17:27.933Z,1.70
2023-03-22T12:20:06.272Z,1.40
2023-03-22T12:22:41.846Z,1.53
2023-03-22T12:25:19.322Z,1.80
2023-03-22T12:28:00.697Z,1.75
2023-03-22T12:30:33.961Z,1.70
2023-03-22T12:33:16.497Z,1.20
2023-03-22T12:35:46.814Z,1.60
2023-03-22T12:38:28.216Z,1.50
2023-03-22T12:41:00.558Z,1.40
2023-03-22T12:43:44.693Z,1.35
2023-03-22T12:46:21.431Z,1.70
2023-03-22T12:48:54.020Z,1.37
2023-03-22T12:51:21.891Z,1.40
2023-03-22T12:53:53.271Z,1.45
2023-03-22T12:56:30.050Z,1.27
2023-03-22T12:59:04.991Z,1.48
2023-03-22T13:02:30.148Z,1.60
2023-03-22T13:05:02.187Z,1.30
2023-03-22T13:07:47.691Z,1.30
2023-03-22T13:10:30.586Z,1.20
2023-03-22T13:13:22.159Z,1.08
2023-03-22T13:15:58.010Z,1.47
2023-03-22T13:18:43.294Z,1.27
2023-03-22T13:21:17.599Z,1.40
2023-03-22T13:24:09.939Z,1.65
2023-03-22T13:26:55.305Z,1.42
2023-03-22T13:29:44.750Z,1.60
2023-03-22T13:32:33.803Z,1.25
2023-03-22T13:35:01.695Z,1.60
2023-03-22T13:37:35.991Z,1.25
2023-03-22T13:40:43.096Z,1.12
2023-03-22T13:43:16.732Z,1.67
2023-03-22T13:46:17.902Z,1.37
2023-03-22T13:48:49.596Z,1.25
2023-03-22T13:51:23.517Z,1.60
2023-03-22T13:54:00.556Z,1.17
2023-03-22T13:56:52.398Z,1.40
2023-03-22T13:59:33.737Z,1.40
2023-03-22T14:02:12.009Z,1.17
2023-03-22T14:04:44.858Z,1.40
2023-03-22T14:07:15.260Z,1.30
2023-03-22T14:09:49.622Z,1.20
2023-03-22T14:12:31.347Z,1.52
2023-03-22T14:15:04.659Z,1.10
2023-03-22T14:18:06.360Z,1.17
2023-03-22T14:20:37.098Z,1.67
